createdAt,value
2019-01-03T00:03:26.262Z,80.97
2019-01-03T00:06:16.733Z,80.87
2019-01-03T00:09:05.389Z,80.67
2019-01-03T00:11:56.597Z,80.69
2019-01-03T00:14:45.184Z,80.79
2019-01-03T00:17:34.132Z,80.85
2019-01-03T00:20:22.529Z,80.84
2019-01-03T00:32:40.661Z,80.68
2019-01-03T00:45:17.446Z,80.56
2019-01-03T00:48:06.460Z,80.50
2019-01-03T00:50:55.435Z,80.54
2019-01-03T00:56:56.222Z,80.28
2019-01-03T01:05:27.285Z,80.60
2019-01-03T01:08:16.067Z,80.64
2019-01-03T01:11:06.668Z,80.74
2019-01-03T01:14:16.039Z,80.36
2019-01-03T01:17:25.019Z,80.83
2019-01-03T01:23:14.596Z,80.59
2019-01-03T01:26:03.428Z,80.30
2019-01-03T01:28:52.953Z,80.33
2019-01-03T01:34:56.445Z,80.36
2019-01-03T01:37:56.337Z,80.37
2019-01-03T01:41:05.288Z,80.43
2019-01-03T01:43:54.013Z,80.90
2019-01-03T01:46:43.154Z,80.58
2019-01-03T01:49:32.771Z,80.40
2019-01-03T01:52:41.698Z,80.77
2019-01-03T01:55:31.168Z,80.52
2019-01-03T02:01:21.922Z,80.48
2019-01-03T02:07:20.159Z,80.43
2019-01-03T02:13:04.220Z,80.60
2019-01-03T02:19:04.567Z,80.74
2019-01-03T02:25:10.854Z,80.56
2019-01-03T02:34:24.775Z,80.39
2019-01-03T02:37:13.926Z,80.55
2019-01-03T02:40:03.020Z,80.67
2019-01-03T02:45:49.178Z,80.55
2019-01-03T02:51:25.598Z,80.39
2019-01-03T02:57:23.387Z,79.99
2019-01-03T03:03:37.173Z,79.58
2019-01-03T03:06:25.441Z,79.28
2019-01-03T03:09:14.402Z,79.57
2019-01-03T03:12:02.846Z,79.44
2019-01-03T03:14:51.657Z,79.34
2019-01-03T03:20:31.799Z,79.42
2019-01-03T03:26:32.124Z,79.56
2019-01-03T03:29:21.550Z,79.30
2019-01-03T03:32:10.810Z,79.42
2019-01-03T03:34:59.055Z,79.22
2019-01-03T03:40:58.061Z,79.02
2019-01-03T03:43:47.352Z,79.06
2019-01-03T03:49:32.786Z,79.00
2019-01-03T03:52:21.900Z,79.00
2019-01-03T03:55:10.670Z,78.99
2019-01-03T04:00:56.815Z,79.08
2019-01-03T04:03:45.818Z,79.12
2019-01-03T04:09:35.937Z,79.50
2019-01-03T04:12:25.035Z,79.50
2019-01-03T04:17:59.834Z,79.66
2019-01-03T04:20:49.176Z,79.70
2019-01-03T04:26:33.396Z,80.06
2019-01-03T04:29:21.789Z,79.86
2019-01-03T04:37:58.052Z,79.92
2019-01-03T04:40:47.189Z,79.80
2019-01-03T04:46:39.045Z,79.46
2019-01-03T04:49:27.453Z,79.26
2019-01-03T04:55:13.296Z,79.05
2019-01-03T05:00:44.842Z,78.82
2019-01-03T05:03:33.169Z,78.95
2019-01-03T05:09:05.295Z,79.47
2019-01-03T05:11:54.359Z,79.90
2019-01-03T05:17:44.643Z,79.01
2019-01-03T05:23:57.007Z,77.70
2019-01-03T05:26:43.637Z,77.97
2019-01-03T05:29:32.546Z,78.15
2019-01-03T05:35:14.763Z,78.43
2019-01-03T05:38:05.192Z,78.16
2019-01-03T05:40:46.427Z,78.06
2019-01-03T05:49:09.258Z,77.83
2019-01-03T05:51:54.357Z,77.94
2019-01-03T05:55:03.316Z,77.91
2019-01-03T06:12:24.479Z,78.31
2019-01-03T06:15:15.874Z,78.33
2019-01-03T06:21:00.433Z,78.06
2019-01-03T06:23:49.212Z,78.66
2019-01-03T06:26:37.534Z,78.68
2019-01-03T06:32:55.994Z,78.15
2019-01-03T06:35:45.431Z,77.90
2019-01-03T06:44:20.447Z,77.73
2019-01-03T06:47:08.766Z,78.11
2019-01-03T06:55:41.588Z,78.29
2019-01-03T06:58:31.308Z,77.73
2019-01-03T07:01:20.576Z,77.56
2019-01-03T07:12:16.372Z,78.83
2019-01-03T07:15:13.926Z,78.74
2019-01-03T07:30:10.188Z,77.80
2019-01-03T07:32:59.859Z,77.73
2019-01-03T07:35:48.462Z,77.39
2019-01-03T07:41:50.138Z,77.69
2019-01-03T07:44:38.428Z,77.85
2019-01-03T07:50:29.377Z,77.08
2019-01-03T07:53:18.321Z,76.74
2019-01-03T07:56:06.576Z,76.85
2019-01-03T08:01:58.017Z,76.50
2019-01-03T08:10:39.370Z,76.93
2019-01-03T08:16:56.096Z,76.84
2019-01-03T08:19:44.456Z,76.43
2019-01-03T08:22:33.101Z,76.50
2019-01-03T08:25:29.082Z,76.09
2019-01-03T08:28:23.794Z,76.17
2019-01-03T08:31:12.561Z,75.69
2019-01-03T08:34:00.896Z,75.43
2019-01-03T08:36:49.355Z,75.78
2019-01-03T08:39:37.828Z,75.62
2019-01-03T08:45:28.820Z,75.92
2019-01-03T08:51:27.316Z,75.78
2019-01-03T08:54:15.777Z,76.00
2019-01-03T08:57:05.229Z,75.64
2019-01-03T09:00:05.332Z,75.49
2019-01-03T09:02:55.681Z,75.42
2019-01-03T09:05:44.948Z,75.33
2019-01-03T09:08:33.802Z,74.76
2019-01-03T09:14:38.061Z,75.12
2019-01-03T09:17:27.295Z,75.16
2019-01-03T09:26:02.716Z,75.07
2019-01-03T09:28:51.510Z,74.89
2019-01-03T09:31:39.883Z,75.44
2019-01-03T09:34:29.069Z,75.27
2019-01-03T09:37:10.938Z,75.18
2019-01-03T09:40:01.119Z,75.37
2019-01-03T09:43:09.977Z,75.08
2019-01-03T09:51:30.679Z,75.76
2019-01-03T09:54:00.451Z,75.42
2019-01-03T10:03:07.286Z,75.19
2019-01-03T10:06:16.231Z,74.99
2019-01-03T10:08:57.146Z,74.79
2019-01-03T10:11:26.658Z,74.75
2019-01-03T10:14:15.108Z,75.26
2019-01-03T10:19:50.142Z,74.95
2019-01-03T10:25:28.847Z,74.94
2019-01-03T10:31:13.127Z,75.09
2019-01-03T10:34:21.936Z,75.15
2019-01-03T10:36:51.394Z,75.69
2019-01-03T10:39:22.203Z,75.48
2019-01-03T10:41:51.645Z,75.26
2019-01-03T10:45:00.635Z,75.31
2019-01-03T10:50:09.757Z,75.74
2019-01-03T10:53:18.419Z,75.81
2019-01-03T10:55:48.165Z,75.71
2019-01-03T10:58:17.624Z,75.68
2019-01-03T11:03:42.895Z,76.01
2019-01-03T11:06:12.462Z,77.22
2019-01-03T11:09:01.312Z,77.87
2019-01-03T11:11:31.003Z,77.48
2019-01-03T11:14:00.440Z,77.18
2019-01-03T11:16:30.452Z,77.41
2019-01-03T11:19:01.129Z,77.43
2019-01-03T11:35:22.755Z,76.11
2019-01-03T11:37:52.200Z,75.94
2019-01-03T11:40:42.954Z,75.82
2019-01-03T11:46:28.069Z,75.46
2019-01-03T11:49:37.023Z,75.56
2019-01-03T11:52:26.024Z,75.31
2019-01-03T11:54:55.692Z,75.18
2019-01-03T11:57:25.247Z,75.38
2019-01-03T12:03:21.987Z,76.38
2019-01-03T12:05:51.913Z,77.59
2019-01-03T12:08:21.489Z,77.35
2019-01-03T12:11:13.982Z,77.76
2019-01-03T12:16:44.180Z,78.17
2019-01-03T12:22:12.543Z,78.00
2019-01-03T12:24:43.795Z,78.12
2019-01-03T12:27:13.292Z,77.54
2019-01-03T12:30:22.199Z,78.29
2019-01-03T12:32:51.836Z,78.63
2019-01-03T12:36:00.626Z,78.92
2019-01-03T12:38:30.186Z,78.77
2019-01-03T12:40:59.696Z,79.30
2019-01-03T12:43:29.273Z,80.51
2019-01-03T12:45:58.772Z,80.77
2019-01-03T12:48:28.399Z,81.41
2019-01-03T12:50:57.876Z,81.98
2019-01-03T12:53:27.561Z,81.70
2019-01-03T12:55:57.010Z,82.33
2019-01-03T12:58:26.669Z,83.18
2019-01-03T13:00:56.768Z,84.12
2019-01-03T13:03:30.171Z,84.18
2019-01-03T13:06:00.255Z,84.25
2019-01-03T13:11:44.937Z,84.55
2019-01-03T13:14:53.824Z,84.68
2019-01-03T13:20:29.423Z,84.93
2019-01-03T13:26:13.369Z,85.46
2019-01-03T13:28:42.908Z,85.96
2019-01-03T13:31:12.330Z,86.43
2019-01-03T13:39:47.267Z,86.64
2019-01-03T13:42:28.530Z,86.64
2019-01-03T13:45:09.916Z,87.17
2019-01-03T13:59:18.441Z,87.50
2019-01-03T14:02:07.033Z,88.02
2019-01-03T14:05:15.842Z,88.02
2019-01-03T14:11:14.110Z,87.71
2019-01-03T14:16:45.869Z,87.70
2019-01-03T14:19:35.456Z,87.56
2019-01-03T14:22:24.510Z,87.76
2019-01-03T14:25:13.109Z,88.11
2019-01-03T14:27:42.853Z,88.11
2019-01-03T14:30:12.283Z,87.93
2019-01-03T14:33:01.467Z,88.02
2019-01-03T14:38:52.456Z,88.21
2019-01-03T14:41:33.759Z,87.96
2019-01-03T14:44:43.564Z,87.96
2019-01-03T14:47:13.102Z,87.99
2019-01-03T14:49:42.643Z,87.15
2019-01-03T14:52:12.247Z,87.75
2019-01-03T14:55:21.060Z,87.02
2019-01-03T14:57:50.798Z,87.02
2019-01-03T15:00:22.082Z,86.87
2019-01-03T15:03:31.316Z,86.82
2019-01-03T15:06:00.845Z,87.02
2019-01-03T15:08:49.457Z,86.53
2019-01-03T15:11:58.166Z,86.18
2019-01-03T15:18:14.819Z,86.04
2019-01-03T15:20:55.895Z,86.04
2019-01-03T15:29:19.151Z,85.41
2019-01-03T15:34:30.256Z,85.50
2019-01-03T15:37:39.292Z,85.67
2019-01-03T15:40:09.029Z,85.19
2019-01-03T15:42:38.872Z,85.20
2019-01-03T15:45:09.329Z,85.20
2019-01-03T15:47:39.724Z,85.11
2019-01-03T15:50:09.616Z,85.18
2019-01-03T15:52:39.105Z,85.11
2019-01-03T15:55:08.658Z,84.95
2019-01-03T15:57:38.789Z,85.28
2019-01-03T16:00:11.163Z,85.03
2019-01-03T16:02:40.805Z,84.97
2019-01-03T16:05:10.397Z,85.28
2019-01-03T16:07:39.926Z,85.28
2019-01-03T16:10:10.084Z,84.84
2019-01-03T16:12:40.758Z,84.83
2019-01-03T16:15:10.274Z,84.21
2019-01-03T16:17:40.259Z,84.47
2019-01-03T16:23:43.554Z,84.24
2019-01-03T16:29:15.092Z,83.96
2019-01-03T16:31:44.486Z,83.97
2019-01-03T16:34:13.912Z,83.98
2019-01-03T16:36:43.592Z,84.01
2019-01-03T16:39:53.020Z,83.83
2019-01-03T16:42:24.354Z,83.73
2019-01-03T16:44:53.903Z,83.86
2019-01-03T16:47:23.349Z,83.51
2019-01-03T16:50:32.239Z,83.22
2019-01-03T16:53:20.881Z,83.64
2019-01-03T16:56:29.709Z,83.30
2019-01-03T16:59:19.125Z,83.54
2019-01-03T17:02:28.297Z,83.54
2019-01-03T17:08:22.912Z,83.73
2019-01-03T17:11:11.481Z,83.76
2019-01-03T17:13:41.218Z,83.73
2019-01-03T17:16:12.979Z,83.73
2019-01-03T17:19:22.727Z,83.64
2019-01-03T17:22:11.397Z,83.89
2019-01-03T17:25:20.312Z,83.89
2019-01-03T17:31:05.297Z,84.31
2019-01-03T17:33:34.855Z,84.31
2019-01-03T17:36:23.476Z,84.29
2019-01-03T17:39:05.283Z,84.43
2019-01-03T17:41:48.689Z,84.37
2019-01-03T17:47:39.118Z,84.41
2019-01-03T17:50:10.637Z,84.61
2019-01-03T17:52:40.188Z,84.61
2019-01-03T17:55:09.826Z,84.81
2019-01-03T17:57:39.479Z,84.63
2019-01-03T18:00:12.785Z,84.77
2019-01-03T18:02:42.490Z,85.11
2019-01-03T18:05:12.064Z,85.21
2019-01-03T18:07:41.585Z,84.78
2019-01-03T18:21:32.665Z,84.19
2019-01-03T18:24:02.480Z,83.93
2019-01-03T18:26:31.851Z,84.04
2019-01-03T18:29:01.299Z,84.03
2019-01-03T18:31:31.240Z,83.97
2019-01-03T18:34:01.040Z,83.88
2019-01-03T18:36:30.583Z,83.88
2019-01-03T18:39:39.328Z,83.83
2019-01-03T18:42:28.230Z,83.89
2019-01-03T18:51:15.496Z,83.48
2019-01-03T18:53:45.230Z,83.79
2019-01-03T18:56:14.924Z,83.75
2019-01-03T18:58:44.457Z,84.18
2019-01-03T19:01:14.068Z,84.15
2019-01-03T19:04:22.958Z,84.42
2019-01-03T19:12:32.539Z,84.85
2019-01-03T19:15:02.444Z,84.82
2019-01-03T19:17:31.987Z,84.83
2019-01-03T19:20:40.804Z,84.94
2019-01-03T19:26:20.019Z,85.43
2019-01-03T19:31:59.151Z,85.51
2019-01-03T19:34:28.798Z,85.74
2019-01-03T19:36:58.225Z,85.87
2019-01-03T19:39:28.071Z,86.22
2019-01-03T19:48:15.089Z,86.78
2019-01-03T19:54:33.410Z,87.12
2019-01-03T20:00:30.469Z,87.13
2019-01-03T20:12:00.848Z,87.82
2019-01-03T20:14:33.763Z,88.03
2019-01-03T20:17:03.631Z,88.85
2019-01-03T20:19:33.906Z,88.46
2019-01-03T20:22:04.641Z,89.17
2019-01-03T20:25:14.053Z,88.78
2019-01-03T20:27:44.047Z,89.16
2019-01-03T20:30:13.978Z,89.32
2019-01-03T20:32:44.055Z,89.53
2019-01-03T20:35:13.770Z,89.59
2019-01-03T20:37:44.457Z,89.20
2019-01-03T20:40:15.616Z,89.43
2019-01-03T20:43:24.586Z,89.51
2019-01-03T20:46:34.523Z,89.63
2019-01-03T20:49:04.478Z,89.87
2019-01-03T20:54:30.607Z,89.75
2019-01-03T20:57:00.425Z,90.10
2019-01-03T21:11:41.139Z,91.13
2019-01-03T21:14:11.226Z,90.65
2019-01-03T21:16:41.204Z,90.77
2019-01-03T21:19:11.235Z,90.25
2019-01-03T21:21:43.659Z,90.82
2019-01-03T21:24:13.475Z,90.27
2019-01-03T21:26:43.290Z,90.42
2019-01-03T21:29:13.227Z,90.78
2019-01-03T21:32:22.367Z,91.24
2019-01-03T21:34:52.430Z,91.37
2019-01-03T21:37:22.114Z,91.38
2019-01-03T21:39:52.069Z,91.08
2019-01-03T21:42:21.936Z,91.07
2019-01-03T21:44:52.754Z,91.07
2019-01-03T21:47:22.933Z,90.87
2019-01-03T21:49:52.932Z,91.24
2019-01-03T21:52:22.649Z,90.80
2019-01-03T21:54:52.401Z,90.99
2019-01-03T21:57:21.818Z,90.94
2019-01-03T21:59:52.698Z,91.66
2019-01-03T22:02:22.416Z,91.80
2019-01-03T22:11:03.760Z,92.12
2019-01-03T22:13:33.505Z,91.97
2019-01-03T22:16:03.374Z,91.97
2019-01-03T22:18:33.220Z,92.13
2019-01-03T22:21:02.615Z,92.07
2019-01-03T22:23:32.481Z,92.06
2019-01-03T22:26:01.970Z,92.32
2019-01-03T22:28:31.488Z,92.38
2019-01-03T22:31:00.915Z,91.94
2019-01-03T22:33:32.224Z,92.15
2019-01-03T22:39:17.244Z,92.02
2019-01-03T22:41:46.960Z,91.91
2019-01-03T22:44:16.443Z,92.27
2019-01-03T22:47:25.351Z,92.31
2019-01-03T22:50:14.707Z,92.27
2019-01-03T22:55:53.944Z,91.81
2019-01-03T22:58:23.658Z,91.66
2019-01-03T23:00:56.427Z,92.16
2019-01-03T23:03:25.837Z,92.54
2019-01-03T23:05:55.261Z,92.54
2019-01-03T23:11:59.443Z,92.07
2019-01-03T23:17:54.976Z,91.98
2019-01-03T23:26:13.776Z,92.88
2019-01-03T23:31:58.088Z,92.93
2019-01-03T23:35:07.159Z,93.08
2019-01-03T23:40:32.310Z,92.67
2019-01-03T23:43:41.588Z,92.62
2019-01-03T23:49:07.235Z,93.13
2019-01-03T23:52:16.973Z,94.19
2019-01-03T23:55:25.936Z,93.93
2019-01-03T23:58:07.346Z,93.72
